createdAt,value
2023-02-13T00:00:46.210Z,101932.28
2023-02-13T00:03:27.898Z,101924.69
2023-02-13T00:06:05.924Z,101927.94
2023-02-13T00:08:47.229Z,101921.66
2023-02-13T00:11:33.735Z,101918.84
2023-02-13T00:14:19.747Z,101931.44
2023-02-13T00:17:06.208Z,101929.88
2023-02-13T00:19:44.001Z,101925.31
2023-02-13T00:22:25.102Z,101923.66
2023-02-13T00:25:05.790Z,101927.72
2023-02-13T00:27:40.569Z,101924.19
2023-02-13T00:30:20.171Z,101926.13
2023-02-13T00:32:55.378Z,101921.28
2023-02-13T00:35:33.905Z,101923.06
2023-02-13T00:38:17.924Z,101918.09
2023-02-13T00:40:52.393Z,101917.31
2023-02-13T00:43:24.875Z,101918.53
2023-02-13T00:46:03.099Z,101917.22
2023-02-13T00:48:39.745Z,101909.66
2023-02-13T00:51:14.878Z,101921.03
2023-02-13T00:53:47.950Z,101916.00
2023-02-13T00:56:24.672Z,101920.38
2023-02-13T00:58:54.705Z,101920.38
2023-02-13T01:01:28.708Z,101922.16
2023-02-13T01:04:12.837Z,101916.16
2023-02-13T01:06:50.123Z,101914.47
2023-02-13T01:09:33.466Z,101917.31
2023-02-13T01:12:13.881Z,101916.53
2023-02-13T01:14:48.885Z,101913.94
2023-02-13T01:17:38.084Z,101907.91
2023-02-13T01:20:14.850Z,101912.41
2023-02-13T01:22:47.077Z,101915.03
2023-02-13T01:25:19.158Z,101913.19
2023-02-13T01:27:59.941Z,101911.72
2023-02-13T01:30:35.020Z,101908.88
2023-02-13T01:33:09.621Z,101907.09
2023-02-13T01:35:49.758Z,101909.94
2023-02-13T01:38:25.288Z,101907.19
2023-02-13T01:41:03.674Z,101901.16
2023-02-13T01:44:45.985Z,101895.97
2023-02-13T01:47:40.501Z,101901.53
2023-02-13T01:50:23.161Z,101918.31
2023-02-13T01:53:28.530Z,101913.38
2023-02-13T01:56:07.372Z,101910.97
2023-02-13T01:58:47.190Z,101912.69
2023-02-13T02:01:24.588Z,101905.28
2023-02-13T02:04:32.037Z,101906.28
2023-02-13T02:07:38.853Z,101903.75
2023-02-13T02:10:22.408Z,101904.63
2023-02-13T02:13:07.956Z,101908.31
2023-02-13T02:15:49.348Z,101902.69
2023-02-13T02:18:25.882Z,101904.09
2023-02-13T02:21:17.189Z,101899.91
2023-02-13T02:24:02.957Z,101898.31
2023-02-13T02:26:59.103Z,101905.88
2023-02-13T02:29:53.049Z,101897.16
2023-02-13T02:32:41.083Z,101893.88
2023-02-13T02:35:34.661Z,101895.72
2023-02-13T02:38:29.685Z,101891.94
2023-02-13T02:41:46.693Z,101889.38
2023-02-13T02:44:52.149Z,101887.09
2023-02-13T02:48:11.174Z,101885.31
2023-02-13T02:50:53.360Z,101882.72
2023-02-13T02:54:01.591Z,101882.72
2023-02-13T02:56:47.675Z,101879.19
2023-02-13T02:59:44.310Z,101872.06
2023-02-13T03:02:36.991Z,101879.09
2023-02-13T03:05:58.255Z,101880.88
2023-02-13T03:08:48.054Z,101888.00
2023-02-13T03:11:39.848Z,101885.44
2023-02-13T03:14:19.465Z,101884.59
2023-02-13T03:17:13.037Z,101879.66
2023-02-13T03:20:37.189Z,101894.53
2023-02-13T03:23:21.968Z,101892.06
2023-02-13T03:26:11.881Z,101892.06
2023-02-13T03:29:30.929Z,101885.13
2023-02-13T03:32:15.598Z,101884.28
2023-02-13T03:35:23.786Z,101888.66
2023-02-13T03:38:08.435Z,101880.75
2023-02-13T03:41:20.225Z,101879.91
2023-02-13T03:44:15.284Z,101873.13
2023-02-13T03:46:55.002Z,101871.69
2023-02-13T03:49:49.662Z,101872.34
2023-02-13T03:52:32.180Z,101875.13
2023-02-13T03:55:59.162Z,101876.09
2023-02-13T03:59:13.226Z,101883.41
2023-02-13T04:02:08.630Z,101882.56
2023-02-13T04:04:55.335Z,101886.84
2023-02-13T04:07:35.722Z,101881.84
2023-02-13T04:10:20.569Z,101879.91
2023-02-13T04:13:18.378Z,101875.84
2023-02-13T04:16:13.049Z,101882.75
2023-02-13T04:18:55.311Z,101871.50
2023-02-13T04:21:37.492Z,101872.28
2023-02-13T04:24:16.827Z,101869.38
2023-02-13T04:26:59.293Z,101860.53
2023-02-13T04:29:42.759Z,101864.09
2023-02-13T04:32:32.132Z,101854.59
2023-02-13T04:35:18.521Z,101860.94
2023-02-13T04:37:56.696Z,101854.84
2023-02-13T04:40:31.850Z,101851.78
2023-02-13T04:43:14.877Z,101847.97
2023-02-13T04:45:59.152Z,101837.63
2023-02-13T04:48:31.319Z,101845.66
2023-02-13T04:50:58.644Z,101845.81
2023-02-13T04:53:39.600Z,101843.97
2023-02-13T04:56:21.497Z,101842.00
2023-02-13T04:59:02.181Z,101842.00
2023-02-13T05:01:37.406Z,101836.59
2023-02-13T05:04:16.416Z,101829.38
2023-02-13T05:06:54.870Z,101827.50
2023-02-13T05:09:33.121Z,101838.59
2023-02-13T05:12:19.672Z,101834.63
2023-02-13T05:15:02.038Z,101839.81
2023-02-13T05:17:36.287Z,101838.25
2023-02-13T05:20:11.947Z,101834.41
2023-02-13T05:23:12.437Z,101829.56
2023-02-13T05:25:55.716Z,101830.06
2023-02-13T05:28:47.682Z,101829.56
2023-02-13T05:31:23.243Z,101831.84
2023-02-13T05:34:06.288Z,101829.22
2023-02-13T05:36:43.992Z,101839.97
2023-02-13T05:39:24.168Z,101838.94
2023-02-13T05:42:12.797Z,101849.44
2023-02-13T05:44:58.062Z,101856.25
2023-02-13T05:47:49.516Z,101856.31
2023-02-13T05:50:30.802Z,101861.94
2023-02-13T05:53:02.840Z,101861.06
2023-02-13T05:55:38.080Z,101871.16
2023-02-13T05:58:16.238Z,101870.56
2023-02-13T06:00:55.661Z,101880.56
2023-02-13T06:03:32.180Z,101874.78
2023-02-13T06:06:15.138Z,101871.63
2023-02-13T06:08:50.286Z,101866.69
2023-02-13T06:11:42.034Z,101873.03
2023-02-13T06:14:17.835Z,101870.63
2023-02-13T06:16:57.810Z,101878.28
2023-02-13T06:19:33.145Z,101884.88
2023-02-13T06:22:12.030Z,101876.00
2023-02-13T06:24:45.872Z,101887.94
2023-02-13T06:27:21.685Z,101883.22
2023-02-13T06:30:05.482Z,101878.59
2023-02-13T06:32:40.536Z,101893.09
2023-02-13T06:35:21.275Z,101892.91
2023-02-13T06:37:59.856Z,101891.63
2023-02-13T06:40:41.203Z,101896.66
2023-02-13T06:43:19.353Z,101892.41
2023-02-13T06:45:53.984Z,101904.88
2023-02-13T06:48:29.133Z,101903.72
2023-02-13T06:51:04.428Z,101901.44
2023-02-13T06:53:42.610Z,101902.00
2023-02-13T06:56:18.310Z,101899.28
2023-02-13T06:58:58.679Z,101903.53
2023-02-13T07:01:36.916Z,101910.88
2023-02-13T07:04:09.335Z,101904.06
2023-02-13T07:06:50.211Z,101905.97
2023-02-13T07:09:28.484Z,101905.22
2023-02-13T07:12:10.636Z,101911.22
2023-02-13T07:14:49.283Z,101907.66
2023-02-13T07:17:32.487Z,101909.09
2023-02-13T07:20:06.968Z,101907.47
2023-02-13T07:22:47.201Z,101911.16
2023-02-13T07:25:25.355Z,101914.00
2023-02-13T07:28:15.408Z,101906.84
2023-02-13T07:31:02.048Z,101908.13
2023-02-13T07:33:40.237Z,101898.00
2023-02-13T07:36:15.638Z,101904.09
2023-02-13T07:38:56.362Z,101895.88
2023-02-13T07:41:37.183Z,101907.34
2023-02-13T07:44:14.607Z,101912.00
2023-02-13T07:46:55.806Z,101910.53
2023-02-13T07:49:37.497Z,101919.38
2023-02-13T07:52:12.628Z,101912.13
2023-02-13T07:54:50.340Z,101911.28
2023-02-13T07:57:29.860Z,101908.09
2023-02-13T08:00:06.161Z,101905.81
2023-02-13T08:02:46.594Z,101908.66
2023-02-13T08:05:19.297Z,101905.66
2023-02-13T08:07:55.991Z,101909.03
2023-02-13T08:10:52.414Z,101911.50
2023-02-13T08:13:30.056Z,101910.53
2023-02-13T08:16:05.248Z,101913.53
2023-02-13T08:18:49.088Z,101914.28
2023-02-13T08:21:24.244Z,101911.38
2023-02-13T08:24:10.518Z,101902.47
2023-02-13T08:26:48.236Z,101914.03
2023-02-13T08:29:26.025Z,101918.84
2023-02-13T08:32:02.028Z,101914.41
2023-02-13T08:34:45.454Z,101905.38
2023-02-13T08:37:24.132Z,101906.09
2023-02-13T08:40:05.395Z,101892.03
2023-02-13T08:42:40.633Z,101895.22
2023-02-13T08:45:17.108Z,101897.66
2023-02-13T08:48:04.016Z,101890.97
2023-02-13T08:50:39.328Z,101900.66
2023-02-13T08:53:21.302Z,101896.22
2023-02-13T08:56:03.607Z,101895.75
2023-02-13T08:58:36.188Z,101898.34
2023-02-13T09:01:24.131Z,101906.00
2023-02-13T09:04:07.433Z,101900.97
2023-02-13T09:06:46.945Z,101901.00
2023-02-13T09:09:27.499Z,101905.06
2023-02-13T09:12:07.663Z,101903.72
2023-02-13T09:14:48.300Z,101907.41
2023-02-13T09:17:36.841Z,101897.72
2023-02-13T09:20:14.059Z,101903.94
2023-02-13T09:22:57.196Z,101898.34
2023-02-13T09:25:40.971Z,101894.09
2023-02-13T09:28:21.732Z,101897.72
2023-02-13T09:31:02.017Z,101896.28
2023-02-13T09:33:40.726Z,101903.22
2023-02-13T09:36:36.355Z,101897.50
2023-02-13T09:39:18.705Z,101896.03
2023-02-13T09:42:08.346Z,101896.63
2023-02-13T09:44:46.879Z,101893.22
2023-02-13T09:47:46.336Z,101899.16
2023-02-13T09:50:33.576Z,101891.34
2023-02-13T09:53:23.383Z,101891.56
2023-02-13T09:56:11.085Z,101893.38
2023-02-13T09:59:01.866Z,101889.13
2023-02-13T10:01:45.839Z,101885.38
2023-02-13T10:04:39.944Z,101889.72
2023-02-13T10:07:50.802Z,101883.69
2023-02-13T10:10:55.362Z,101885.53
2023-02-13T10:13:52.091Z,101868.34
2023-02-13T10:16:53.572Z,101863.81
2023-02-13T10:20:07.970Z,101864.72
2023-02-13T10:23:08.537Z,101864.06
2023-02-13T10:26:03.509Z,101853.59
2023-02-13T10:29:25.376Z,101859.44
2023-02-13T10:32:13.829Z,101846.31
2023-02-13T10:35:01.339Z,101834.78
2023-02-13T10:37:43.707Z,101831.41
2023-02-13T10:40:22.123Z,101844.47
2023-02-13T10:43:24.938Z,101832.00
2023-02-13T10:46:59.504Z,101819.72
2023-02-13T10:49:53.928Z,101826.03
2023-02-13T10:53:04.263Z,101816.41
2023-02-13T10:55:52.201Z,101818.97
2023-02-13T10:58:41.635Z,101817.97
2023-02-13T11:01:51.607Z,101812.44
2023-02-13T11:04:34.844Z,101818.66
2023-02-13T11:07:19.558Z,101805.09
2023-02-13T11:10:05.822Z,101803.44
2023-02-13T11:12:58.188Z,101805.09
2023-02-13T11:16:01.604Z,101799.72
2023-02-13T11:18:44.494Z,101790.78
2023-02-13T11:21:36.024Z,101788.06
2023-02-13T11:24:22.692Z,101784.50
2023-02-13T11:27:09.492Z,101788.88
2023-02-13T11:30:03.079Z,101787.38
2023-02-13T11:32:43.918Z,101771.88
2023-02-13T11:35:39.402Z,101768.50
2023-02-13T11:38:30.949Z,101763.97
2023-02-13T11:41:49.254Z,101767.56
2023-02-13T11:44:35.223Z,101762.09
2023-02-13T11:47:16.209Z,101765.47
2023-02-13T11:50:02.490Z,101762.94
2023-02-13T11:52:45.133Z,101761.56
2023-02-13T11:55:42.872Z,101758.59
2023-02-13T11:58:27.854Z,101760.41
2023-02-13T12:01:22.579Z,101755.22
2023-02-13T12:04:18.121Z,101757.28
2023-02-13T12:07:22.035Z,101758.97
2023-02-13T12:10:17.383Z,101755.75
2023-02-13T12:13:27.540Z,101756.69
2023-02-13T12:16:30.630Z,101746.59
2023-02-13T12:19:21.526Z,101745.97
2023-02-13T12:22:07.821Z,101748.22
2023-02-13T12:25:00.565Z,101737.94
2023-02-13T12:28:30.257Z,101742.09
2023-02-13T12:31:30.833Z,101729.53
2023-02-13T12:34:21.529Z,101728.34
2023-02-13T12:37:11.814Z,101727.16
2023-02-13T12:40:20.436Z,101719.91
2023-02-13T12:43:24.391Z,101702.25
2023-02-13T12:46:48.665Z,101704.78
2023-02-13T12:49:33.804Z,101698.75
2023-02-13T12:52:44.817Z,101700.56
2023-02-13T12:55:41.064Z,101690.41
2023-02-13T12:58:59.786Z,101685.88
2023-02-13T13:01:54.020Z,101690.56
2023-02-13T13:04:47.281Z,101680.16
2023-02-13T13:07:43.643Z,101677.31
2023-02-13T13:11:06.718Z,101671.81
2023-02-13T13:14:06.915Z,101682.31
2023-02-13T13:16:55.826Z,101677.06
2023-02-13T13:19:45.783Z,101677.38
2023-02-13T13:22:34.945Z,101678.09
2023-02-13T13:25:39.852Z,101659.13
2023-02-13T13:28:47.901Z,101660.66
2023-02-13T13:31:33.261Z,101671.91
2023-02-13T13:34:19.706Z,101666.06
2023-02-13T13:37:22.854Z,101665.88
2023-02-13T13:40:08.226Z,101669.13
2023-02-13T13:43:14.517Z,101660.53
2023-02-13T13:46:06.938Z,101660.53
2023-02-13T13:48:53.799Z,101658.56
2023-02-13T13:51:30.734Z,101655.19
2023-02-13T13:54:06.759Z,101651.56
2023-02-13T13:57:06.690Z,101661.50
2023-02-13T13:59:41.949Z,101662.75
2023-02-13T14:02:43.732Z,101665.88
2023-02-13T14:05:41.171Z,101664.69
2023-02-13T14:08:49.400Z,101662.50
2023-02-13T14:11:41.491Z,101655.44
2023-02-13T14:14:35.501Z,101652.22
2023-02-13T14:17:21.501Z,101659.88
2023-02-13T14:20:04.734Z,101668.31
2023-02-13T14:22:44.675Z,101670.25
2023-02-13T14:25:40.549Z,101667.66
2023-02-13T14:28:30.122Z,101668.00
2023-02-13T14:31:32.582Z,101667.53
2023-02-13T14:34:16.976Z,101665.97
2023-02-13T14:37:06.852Z,101665.38
2023-02-13T14:39:48.970Z,101664.47
2023-02-13T14:42:34.920Z,101657.16
2023-02-13T14:45:27.331Z,101653.78
2023-02-13T14:48:17.708Z,101656.88
2023-02-13T14:51:00.276Z,101661.19
2023-02-13T14:53:50.752Z,101658.28
2023-02-13T14:56:36.745Z,101657.19
2023-02-13T14:59:17.924Z,101648.41
2023-02-13T15:02:15.433Z,101652.72
2023-02-13T15:04:59.645Z,101653.72
2023-02-13T15:07:42.382Z,101668.75
2023-02-13T15:10:49.683Z,101673.66
2023-02-13T15:13:40.708Z,101671.22
2023-02-13T15:16:24.194Z,101681.84
2023-02-13T15:19:06.370Z,101678.63
2023-02-13T15:21:52.689Z,101673.09
2023-02-13T15:24:34.529Z,101671.97
2023-02-13T15:27:32.597Z,101664.03
2023-02-13T15:30:41.629Z,101657.47
2023-02-13T15:33:28.901Z,101660.84
2023-02-13T15:36:19.443Z,101656.84
2023-02-13T15:39:10.446Z,101654.81
2023-02-13T15:41:50.156Z,101659.78
2023-02-13T15:44:43.021Z,101644.88
2023-02-13T15:47:50.550Z,101649.97
2023-02-13T15:50:45.754Z,101642.78
2023-02-13T15:53:30.823Z,101638.81
2023-02-13T15:56:10.962Z,101637.00
2023-02-13T15:58:59.067Z,101643.50
2023-02-13T16:01:51.944Z,101646.31
2023-02-13T16:04:33.856Z,101643.44
2023-02-13T16:07:37.880Z,101648.19
2023-02-13T16:10:41.860Z,101649.81
2023-02-13T16:13:25.742Z,101642.88
2023-02-13T16:16:24.138Z,101643.25
2023-02-13T16:19:07.537Z,101644.44
2023-02-13T16:21:56.336Z,101645.09
2023-02-13T16:24:37.554Z,101643.84
2023-02-13T16:27:28.369Z,101641.47
2023-02-13T16:30:33.438Z,101643.31
2023-02-13T16:33:39.392Z,101640.84
2023-02-13T16:36:18.149Z,101633.66
2023-02-13T16:39:13.753Z,101634.84
2023-02-13T16:42:00.439Z,101632.66
2023-02-13T16:45:01.421Z,101639.72
2023-02-13T16:47:42.905Z,101641.66
2023-02-13T16:50:25.832Z,101645.41
2023-02-13T16:53:07.416Z,101645.16
2023-02-13T16:55:39.318Z,101642.50
2023-02-13T16:58:27.758Z,101636.56
2023-02-13T17:01:18.785Z,101632.31
2023-02-13T17:03:59.793Z,101630.81
2023-02-13T17:06:40.964Z,101630.34
2023-02-13T17:09:41.913Z,101625.69
2023-02-13T17:12:28.237Z,101612.63
2023-02-13T17:15:06.799Z,101615.56
2023-02-13T17:17:54.042Z,101611.75
2023-02-13T17:20:36.464Z,101615.38
2023-02-13T17:23:25.426Z,101616.59
2023-02-13T17:26:04.016Z,101612.59
2023-02-13T17:28:42.155Z,101611.41
2023-02-13T17:31:25.439Z,101604.34
2023-02-13T17:34:08.803Z,101605.41
2023-02-13T17:36:46.498Z,101603.22
2023-02-13T17:39:31.594Z,101590.75
2023-02-13T17:42:09.146Z,101583.13
2023-02-13T17:44:44.997Z,101591.88
2023-02-13T17:47:21.223Z,101596.16
2023-02-13T17:50:09.948Z,101586.91
2023-02-13T17:53:02.373Z,101590.75
2023-02-13T17:55:45.330Z,101591.28
2023-02-13T17:58:21.039Z,101574.06
2023-02-13T18:01:05.230Z,101574.91
2023-02-13T18:03:40.393Z,101571.84
2023-02-13T18:06:38.253Z,101575.88
2023-02-13T18:09:17.015Z,101575.56
2023-02-13T18:12:06.273Z,101564.84
2023-02-13T18:14:52.084Z,101571.34
2023-02-13T18:17:32.388Z,101561.16
2023-02-13T18:20:17.026Z,101561.91
2023-02-13T18:23:00.897Z,101559.16
2023-02-13T18:25:40.510Z,101561.72
2023-02-13T18:28:18.193Z,101550.13
2023-02-13T18:30:59.368Z,101548.97
2023-02-13T18:33:39.426Z,101546.72
2023-02-13T18:36:15.019Z,101543.75
2023-02-13T18:38:57.352Z,101543.75
2023-02-13T18:41:40.693Z,101544.28
2023-02-13T18:44:28.499Z,101543.00
2023-02-13T18:47:08.070Z,101542.25
2023-02-13T18:50:01.269Z,101545.03
2023-02-13T18:52:34.918Z,101545.03
2023-02-13T18:55:17.755Z,101535.03
2023-02-13T18:57:57.477Z,101544.28
2023-02-13T19:00:46.338Z,101540.56
2023-02-13T19:03:23.455Z,101536.75
2023-02-13T19:06:09.182Z,101543.44
2023-02-13T19:08:59.209Z,101550.75
2023-02-13T19:11:51.761Z,101549.25
2023-02-13T19:14:40.092Z,101549.25
2023-02-13T19:17:17.056Z,101546.81
2023-02-13T19:19:55.031Z,101542.03
2023-02-13T19:22:35.972Z,101539.16
2023-02-13T19:25:19.011Z,101539.16
2023-02-13T19:28:03.595Z,101537.53
2023-02-13T19:30:41.880Z,101535.94
2023-02-13T19:33:28.216Z,101537.00
2023-02-13T19:36:19.472Z,101546.03
2023-02-13T19:39:09.733Z,101535.72
2023-02-13T19:41:48.057Z,101546.41
2023-02-13T19:44:25.521Z,101537.47
2023-02-13T19:47:06.451Z,101535.38
2023-02-13T19:49:48.129Z,101528.22
2023-02-13T19:52:18.848Z,101530.63
2023-02-13T19:54:56.974Z,101524.31
2023-02-13T19:57:40.110Z,101530.88
2023-02-13T20:00:22.902Z,101522.28
2023-02-13T20:03:05.197Z,101514.88
2023-02-13T20:05:49.265Z,101524.38
2023-02-13T20:08:27.569Z,101520.00
2023-02-13T20:11:11.270Z,101518.31
2023-02-13T20:13:43.917Z,101520.06
2023-02-13T20:16:30.238Z,101504.41
2023-02-13T20:19:15.427Z,101506.72
2023-02-13T20:21:53.094Z,101510.56
2023-02-13T20:24:30.784Z,101533.09
2023-02-13T20:27:11.730Z,101520.53
2023-02-13T20:29:48.132Z,101505.88
2023-02-13T20:32:28.108Z,101521.38
2023-02-13T20:35:06.522Z,101530.38
2023-02-13T20:37:51.198Z,101519.06
2023-02-13T20:40:28.796Z,101519.09
2023-02-13T20:43:10.190Z,101519.50
2023-02-13T20:45:50.698Z,101522.16
2023-02-13T20:48:28.423Z,101518.31
2023-02-13T20:51:15.554Z,101519.75
2023-02-13T20:53:45.721Z,101508.78
2023-02-13T20:56:42.095Z,101496.75
2023-02-13T20:59:17.725Z,101517.13
2023-02-13T21:01:55.014Z,101517.97
2023-02-13T21:04:32.651Z,101519.88
2023-02-13T21:07:09.179Z,101516.00
2023-02-13T21:09:39.957Z,101518.31
2023-02-13T21:12:21.881Z,101507.22
2023-02-13T21:14:56.926Z,101515.38
2023-02-13T21:17:29.608Z,101512.91
2023-02-13T21:20:02.289Z,101511.38
2023-02-13T21:22:42.988Z,101533.81
2023-02-13T21:25:20.653Z,101530.34
2023-02-13T21:27:52.391Z,101523.31
2023-02-13T21:30:37.154Z,101523.41
2023-02-13T21:33:17.880Z,101523.13
2023-02-13T21:36:02.149Z,101528.31
2023-02-13T21:38:34.513Z,101535.53
2023-02-13T21:41:19.581Z,101537.22
2023-02-13T21:43:54.101Z,101530.97
2023-02-13T21:46:35.318Z,101537.97
2023-02-13T21:49:15.504Z,101545.06
2023-02-13T21:51:53.073Z,101552.25
2023-02-13T21:54:25.934Z,101545.44
2023-02-13T21:57:14.108Z,101537.78
2023-02-13T21:59:49.181Z,101537.13
2023-02-13T22:02:27.047Z,101538.81
2023-02-13T22:05:07.431Z,101542.03
2023-02-13T22:08:01.085Z,101531.06
2023-02-13T22:10:44.758Z,101545.03
2023-02-13T22:13:25.545Z,101533.31
2023-02-13T22:16:12.412Z,101535.00
2023-02-13T22:18:50.673Z,101542.84
2023-02-13T22:21:48.008Z,101532.13
2023-02-13T22:24:22.720Z,101526.19
2023-02-13T22:26:57.075Z,101522.78
2023-02-13T22:29:32.326Z,101526.13
2023-02-13T22:32:11.768Z,101520.56
2023-02-13T22:34:52.075Z,101526.44
2023-02-13T22:37:32.736Z,101519.34
2023-02-13T22:40:11.971Z,101511.53
2023-02-13T22:42:52.716Z,101509.63
2023-02-13T22:45:27.563Z,101512.38
2023-02-13T22:48:07.670Z,101518.50
2023-02-13T22:50:43.665Z,101509.81
2023-02-13T22:53:16.370Z,101515.66
2023-02-13T22:55:46.190Z,101514.44
2023-02-13T22:58:24.494Z,101516.56
2023-02-13T23:01:05.310Z,101524.19
2023-02-13T23:03:38.273Z,101524.19
2023-02-13T23:06:22.012Z,101524.00
2023-02-13T23:08:58.260Z,101525.59
2023-02-13T23:11:48.056Z,101518.59
2023-02-13T23:14:27.935Z,101512.91
2023-02-13T23:17:21.349Z,101506.94
2023-02-13T23:19:59.149Z,101496.44
2023-02-13T23:22:32.100Z,101492.00
2023-02-13T23:25:12.458Z,101495.53
2023-02-13T23:27:53.759Z,101487.84
2023-02-13T23:30:31.438Z,101495.03
2023-02-13T23:33:08.730Z,101492.44
2023-02-13T23:35:41.306Z,101488.38
2023-02-13T23:38:19.031Z,101481.59
2023-02-13T23:40:49.032Z,101489.84
2023-02-13T23:43:27.430Z,101491.41
2023-02-13T23:46:07.812Z,101489.00
2023-02-13T23:48:54.459Z,101490.09
2023-02-13T23:51:32.011Z,101478.38
2023-02-13T23:54:07.250Z,101483.66
2023-02-13T23:56:40.079Z,101486.13
2023-02-13T23:59:15.742Z,101484.63
